TimeMST,TemperatureF,Dew PointF,Humidity,Sea Level PressureIn,VisibilityMPH,Wind Direction,Wind SpeedMPH,Gust SpeedMPH,PrecipitationIn,Events,Conditions,WindDirDegrees,DateUTC
12:51 AM,28.0,23.0,81,30.52,10.0,Calm,Calm,-,N/A,,Overcast,0,2013-02-15 07:51:00
1:51 AM,28.0,21.9,78,30.51,10.0,Calm,Calm,-,N/A,,Scattered Clouds,0,2013-02-15 08:51:00
2:51 AM,25.0,19.9,81,30.53,10.0,SE,3.5,-,N/A,,Scattered Clouds,130,2013-02-15 09:51:00
3:51 AM,23.0,19.0,85,30.52,10.0,Calm,Calm,-,N/A,,Clear,0,2013-02-15 10:51:00
4:51 AM,21.0,18.0,88,30.52,10.0,NE,3.5,-,N/A,,Clear,50,2013-02-15 11:51:00
5:51 AM,19.0,15.1,85,30.54,10.0,Calm,Calm,-,N/A,,Clear,0,2013-02-15 12:51:00
6:51 AM,19.0,15.1,85,30.54,10.0,Calm,Calm,-,N/A,,Clear,0,2013-02-15 13:51:00
7:51 AM,17.1,14.0,88,30.57,7.0,Calm,Calm,-,N/A,,Clear,0,2013-02-15 14:51:00
8:51 AM,17.1,16.0,96,30.58,10.0,WSW,3.5,-,N/A,,Clear,250,2013-02-15 15:51:00
9:51 AM,23.0,19.9,88,30.57,9.0,Calm,Calm,-,N/A,,Clear,0,2013-02-15 16:51:00
10:51 AM,24.1,19.9,84,30.56,10.0,South,5.8,-,N/A,,Clear,180,2013-02-15 17:51:00
11:51 AM,28.9,21.9,75,30.55,10.0,South,3.5,-,N/A,,Clear,180,2013-02-15 18:51:00
12:51 PM,34.0,21.9,61,30.52,10.0,Calm,Calm,-,N/A,,Clear,0,2013-02-15 19:51:00
1:51 PM,35.1,23.0,61,30.49,10.0,Calm,Calm,-,N/A,,Clear,0,2013-02-15 20:51:00
2:51 PM,37.9,21.9,53,30.46,10.0,SE,3.5,-,N/A,,Clear,140,2013-02-15 21:51:00
3:51 PM,37.0,23.0,57,30.46,10.0,South,4.6,-,N/A,,Clear,190,2013-02-15 22:51:00
4:51 PM,39.0,23.0,53,30.45,10.0,Calm,Calm,-,N/A,,Clear,0,2013-02-15 23:51:00
5:51 PM,37.0,21.9,54,30.45,10.0,Calm,Calm,-,N/A,,Clear,0,2013-02-16 00:51:00
6:51 PM,30.9,21.9,69,30.46,10.0,NE,3.5,-,N/A,,Clear,50,2013-02-16 01:51:00
7:51 PM,28.0,21.0,75,30.48,9.0,Calm,Calm,-,N/A,,Clear,0,2013-02-16 02:51:00
8:51 PM,25.0,19.9,81,30.50,10.0,Calm,Calm,-,N/A,,Clear,0,2013-02-16 03:51:00
9:51 PM,24.1,19.9,84,30.47,8.0,Calm,Calm,-,N/A,,Clear,0,2013-02-16 04:51:00
10:51 PM,21.0,17.1,85,30.48,10.0,Calm,Calm,-,N/A,,Clear,0,2013-02-16 05:51:00
11:51 PM,21.0,18.0,88,30.46,7.0,NNW,4.6,-,N/A,,Clear,330,2013-02-16 06:51:00